Time;durP1;ratioP1;P1;durP2;ratioP2;P2;SDS_P1;SDS_P2;PMS_P1;PMS_P2;Temp;Humidity;BMP_temperature;BMP_pressure;BME280_temperature;BME280_humidity;BME280_pressure;Samples;Min_cycle;Max_cycle;Signal;HPM_P1;HPM_P2
2023/07/08 00:05:56;;;;;;;7.90;4.70;;;;;;;12.84;65.56;100117.33;431487;1271;139794;-66
2023/07/08 00:15:59;;;;;;;8.00;4.40;;;;;;;12.71;66.22;100114.14;432320;1270;139910;-67
2023/07/08 00:26:04;;;;;;;10.20;4.90;;;;;;;12.60;66.87;100112.40;431505;1268;140151;-67
2023/07/08 00:36:13;;;;;;;8.00;5.50;;;;;;;12.50;67.12;100116.89;431408;1268;139671;-66
2023/07/08 00:46:30;;;;;;;9.20;4.30;;;;;;;12.35;67.69;100114.31;431637;1267;139345;-67
2023/07/08 00:56:39;;;;;;;9.10;5.80;;;;;;;12.26;68.24;100107.69;431233;1268;139518;-67
2023/07/08 01:06:46;;;;;;;10.30;4.50;;;;;;;12.14;68.43;100108.91;431239;1267;140396;-66
2023/07/08 01:16:51;;;;;;;8.40;5.40;;;;;;;12.05;68.71;100112.46;431375;1268;143201;-68
2023/07/08 01:26:54;;;;;;;6.60;4.60;;;;;;;11.93;69.37;100099.45;431342;1268;141130;-68
2023/07/08 01:36:59;;;;;;;6.90;5.50;;;;;;;11.87;69.80;100095.29;431361;1267;139743;-67
2023/07/08 01:47:08;;;;;;;8.00;6.50;;;;;;;11.78;70.37;100090.75;431671;1267;139744;-68
2023/07/08 01:57:11;;;;;;;8.60;5.50;;;;;;;11.71;70.56;100087.14;432239;1268;140206;-67
2023/07/08 02:07:14;;;;;;;6.90;5.70;;;;;;;11.61;70.72;100084.58;431653;1268;139816;-68
2023/07/08 02:17:17;;;;;;;8.10;5.90;;;;;;;11.52;71.08;100084.77;431770;1268;140701;-67
2023/07/08 02:27:20;;;;;;;8.70;6.40;;;;;;;11.45;71.20;100082.17;432024;1268;139501;-67
2023/07/08 02:37:23;;;;;;;10.10;5.80;;;;;;;11.41;71.65;100075.95;431504;1270;139717;-67
2023/07/08 02:47:26;;;;;;;11.50;6.30;;;;;;;11.42;71.76;100073.80;431196;1268;140024;-68
2023/07/08 02:57:30;;;;;;;8.40;6.00;;;;;;;11.49;71.84;100078.27;431695;1268;139941;-67
2023/07/08 03:07:33;;;;;;;7.80;5.90;;;;;;;11.95;71.88;100085.67;432088;1268;140030;-68
2023/07/08 03:17:36;;;;;;;7.60;5.50;;;;;;;14.38;70.80;100077.30;431398;1270;139964;-67
2023/07/08 03:27:39;;;;;;;8.00;5.40;;;;;;;17.56;64.63;100081.19;431417;1268;139349;-67
2023/07/08 03:37:42;;;;;;;9.50;6.40;;;;;;;17.66;60.64;100086.25;431276;1268;139947;-68
2023/07/08 03:47:45;;;;;;;5.10;4.40;;;;;;;17.08;60.42;100087.39;431248;1268;140489;-67
2023/07/08 03:57:49;;;;;;;12.30;6.20;;;;;;;16.26;61.16;100092.60;431353;1270;139432;-65
2023/07/08 04:07:53;;;;;;;7.10;5.40;;;;;;;18.35;62.20;100090.73;431527;1270;140448;-66
2023/07/08 04:17:57;;;;;;;7.00;5.40;;;;;;;26.16;53.24;100084.48;431317;1268;139537;-67
2023/07/08 04:28:00;;;;;;;6.00;5.30;;;;;;;31.36;43.97;100080.48;431262;1270;138633;-67
2023/07/08 04:38:09;;;;;;;8.50;5.00;;;;;;;35.27;36.77;100071.15;431261;1270;139430;-68
2023/07/08 04:48:15;;;;;;;5.10;4.20;;;;;;;38.77;31.27;100070.64;431046;1267;139271;-68
2023/07/08 04:58:18;;;;;;;6.80;4.50;;;;;;;41.48;27.41;100073.88;431524;1268;138595;-66
2023/07/08 05:08:21;;;;;;;5.10;3.60;;;;;;;44.19;24.44;100065.63;431143;1268;138666;-67
2023/07/08 05:18:24;;;;;;;9.50;3.60;;;;;;;46.68;21.99;100061.64;431278;1268;139253;-67
2023/07/08 05:28:27;;;;;;;4.00;2.40;;;;;;;48.57;19.59;100049.54;431205;1270;139326;-67
2023/07/08 05:38:30;;;;;;;3.20;2.50;;;;;;;50.53;17.71;100046.41;431271;1268;138841;-67
2023/07/08 05:48:33;;;;;;;1.80;1.70;;;;;;;52.57;15.69;100039.55;431284;1270;139201;-66
2023/07/08 05:58:36;;;;;;;4.20;1.70;;;;;;;54.01;14.37;100031.39;431621;1270;138567;-67
2023/07/08 06:08:39;;;;;;;2.90;1.80;;;;;;;55.71;13.46;100021.27;431444;1270;138562;-66
2023/07/08 06:18:42;;;;;;;2.70;2.60;;;;;;;56.72;12.51;100021.83;431247;1270;139788;-66
2023/07/08 06:28:45;;;;;;;3.40;3.20;;;;;;;57.71;11.46;100020.88;431139;1273;138790;-66
2023/07/08 06:38:48;;;;;;;4.30;4.00;;;;;;;58.96;10.75;100028.52;431075;1270;140141;-68
2023/07/08 06:48:53;;;;;;;5.70;5.40;;;;;;;60.02;9.99;100020.95;431944;1269;139699;-67
2023/07/08 06:58:56;;;;;;;9.00;8.20;;;;;;;60.41;9.25;100023.70;431102;1272;138970;-66
2023/07/08 07:08:59;;;;;;;9.60;9.30;;;;;;;61.25;8.59;100024.12;431434;1268;138539;-67
2023/07/08 07:19:02;;;;;;;12.40;12.00;;;;;;;62.32;8.35;100019.38;432090;1271;138613;-68
2023/07/08 07:29:06;;;;;;;14.40;13.90;;;;;;;62.63;8.04;100020.52;431225;1271;158724;-68
2023/07/08 07:39:09;;;;;;;13.70;13.20;;;;;;;62.62;7.76;100016.61;431229;1272;139181;-70
2023/07/08 07:49:12;;;;;;;9.20;8.80;;;;;;;62.20;7.21;100011.69;431528;1273;139589;-68
2023/07/08 07:59:15;;;;;;;2.10;1.40;;;;;;;60.23;7.72;100008.36;431300;1272;139067;-68
2023/07/08 08:09:18;;;;;;;5.80;1.30;;;;;;;51.16;9.57;100005.38;431542;1273;138418;-66
2023/07/08 08:19:22;;;;;;;2.20;1.40;;;;;;;43.75;12.03;100006.17;431522;1270;139965;-68
2023/07/08 08:29:25;;;;;;;1.50;1.30;;;;;;;39.56;14.51;100011.27;431964;1270;139186;-68
2023/07/08 08:39:29;;;;;;;1.50;1.10;;;;;;;37.47;15.89;100015.54;431295;1272;138495;-67
2023/07/08 08:49:42;;;;;;;2.60;1.30;;;;;;;35.86;17.19;100015.96;431721;1270;138651;-68
2023/07/08 08:59:53;;;;;;;1.90;1.40;;;;;;;34.75;18.04;100019.45;432802;1267;140042;-69
2023/07/08 09:10:04;;;;;;;3.20;1.20;;;;;;;33.83;18.61;100018.42;432033;1271;139115;-69
2023/07/08 09:20:21;;;;;;;4.80;1.70;;;;;;;32.71;19.34;100017.42;432011;1271;138627;-68
2023/07/08 09:30:26;;;;;;;1.10;1.10;;;;;;;31.99;20.09;100015.35;431614;1268;140992;-68
2023/07/08 09:40:32;;;;;;;1.40;1.30;;;;;;;31.75;20.66;100007.42;431279;1270;138514;-67
2023/07/08 09:50:36;;;;;;;1.50;1.40;;;;;;;31.52;21.08;99997.65;432034;1267;140298;-67
2023/07/08 10:00:41;;;;;;;2.20;2.00;;;;;;;31.07;21.44;99988.40;431173;1272;141125;-66
2023/07/08 10:10:47;;;;;;;2.40;1.30;;;;;;;30.67;21.90;99986.13;431844;1267;138552;-66
2023/07/08 10:20:59;;;;;;;1.60;1.30;;;;;;;30.24;22.42;99978.08;431503;1267;139457;-67
2023/07/08 10:31:27;;;;;;;1.50;1.30;;;;;;;29.91;22.48;99975.02;431981;1267;139864;-67
2023/07/08 10:41:43;;;;;;;1.80;1.60;;;;;;;29.49;22.83;99965.92;431425;1267;138535;-66
2023/07/08 10:51:54;;;;;;;1.70;1.50;;;;;;;29.34;23.19;99957.77;432218;1268;140293;-67
2023/07/08 11:02:15;;;;;;;1.50;1.30;;;;;;;29.44;23.35;99951.90;431689;1267;138773;-68
2023/07/08 11:12:27;;;;;;;2.60;1.30;;;;;;;29.47;23.43;99951.80;431640;1273;138899;-68
2023/07/08 11:22:32;;;;;;;3.10;1.30;;;;;;;29.48;23.38;99944.01;431679;1271;138588;-68
2023/07/08 11:32:36;;;;;;;3.80;2.00;;;;;;;29.08;23.69;99937.39;432380;1267;139383;-68
2023/07/08 11:42:42;;;;;;;1.30;1.20;;;;;;;28.84;24.14;99933.17;432111;1270;140112;-67
2023/07/08 11:52:53;;;;;;;2.70;1.60;;;;;;;28.84;23.94;99919.98;432033;1271;140199;-66
2023/07/08 12:02:58;;;;;;;4.80;1.80;;;;;;;28.74;24.16;99909.02;432101;1270;139131;-67
2023/07/08 12:13:02;;;;;;;3.20;1.50;;;;;;;28.88;23.98;99908.92;432091;1270;141085;-67
2023/07/08 12:23:12;;;;;;;2.90;1.70;;;;;;;28.85;24.07;99904.85;431814;1271;139574;-67
2023/07/08 12:33:18;;;;;;;2.40;1.50;;;;;;;28.90;24.12;99897.91;432349;1268;138535;-65
2023/07/08 12:43:21;;;;;;;1.60;1.50;;;;;;;28.64;23.73;99884.48;432292;1267;140420;-65
2023/07/08 12:53:24;;;;;;;2.90;1.40;;;;;;;28.54;23.79;99887.27;431255;1267;139439;-66
2023/07/08 13:03:30;;;;;;;2.60;1.70;;;;;;;28.56;24.24;99873.72;431518;1270;138625;-66
2023/07/08 13:13:36;;;;;;;3.20;1.50;;;;;;;28.60;24.03;99862.29;431979;1267;140321;-65
2023/07/08 13:23:40;;;;;;;2.30;1.70;;;;;;;28.60;24.01;99851.02;431862;1267;139142;-65
2023/07/08 13:33:48;;;;;;;1.70;1.60;;;;;;;28.56;24.11;99852.28;432014;1267;139789;-65
2023/07/08 13:43:51;;;;;;;3.00;1.60;;;;;;;28.58;24.35;99846.84;432100;1267;139415;-64
2023/07/08 13:54:00;;;;;;;2.40;1.60;;;;;;;28.61;24.67;99841.34;431670;1267;138667;-65
2023/07/08 14:04:04;;;;;;;1.70;1.60;;;;;;;28.62;24.59;99834.73;431833;1270;138537;-68
2023/07/08 14:14:09;;;;;;;1.90;1.70;;;;;;;28.51;24.15;99825.53;431751;1267;139196;-69
2023/07/08 14:24:14;;;;;;;5.90;2.20;;;;;;;28.48;24.25;99818.98;431792;1267;138607;-67
2023/07/08 14:34:22;;;;;;;2.60;1.70;;;;;;;28.55;24.59;99815.88;431892;1267;139343;-69
2023/07/08 14:44:30;;;;;;;2.50;1.70;;;;;;;28.56;24.65;99808.20;432393;1267;139375;-68
2023/07/08 14:54:34;;;;;;;1.90;1.50;;;;;;;28.56;24.81;99802.04;431876;1268;139103;-68
2023/07/08 15:04:37;;;;;;;5.50;2.20;;;;;;;28.46;24.75;99791.10;431678;1267;138578;-67
2023/07/08 15:14:40;;;;;;;1.90;1.70;;;;;;;28.42;24.94;99785.92;431695;1268;138533;-68
2023/07/08 15:24:43;;;;;;;2.10;1.40;;;;;;;28.45;25.30;99781.13;431624;1267;139371;-68
2023/07/08 15:34:47;;;;;;;4.10;2.10;;;;;;;28.48;25.07;99773.68;431761;1270;138749;-68
2023/07/08 15:44:52;;;;;;;1.90;1.30;;;;;;;28.55;25.41;99769.39;433824;1267;138404;-67
2023/07/08 15:54:55;;;;;;;2.30;2.10;;;;;;;28.62;25.36;99770.62;431745;1270;139185;-67
2023/07/08 16:04:58;;;;;;;2.20;2.00;;;;;;;28.67;25.45;99771.34;432081;1267;138723;-68
2023/07/08 16:15:01;;;;;;;2.00;1.80;;;;;;;28.57;25.61;99766.93;432305;1270;138370;-69
2023/07/08 16:25:06;;;;;;;3.20;1.90;;;;;;;28.40;25.87;99767.02;432184;1267;138723;-67
2023/07/08 16:35:10;;;;;;;1.80;1.60;;;;;;;28.38;26.17;99762.30;431606;1267;138371;-68
2023/07/08 16:45:16;;;;;;;1.80;1.50;;;;;;;28.21;25.68;99759.96;431848;1270;138567;-69
2023/07/08 16:55:21;;;;;;;1.60;1.50;;;;;;;28.09;26.02;99757.55;432751;1267;139730;-69
2023/07/08 17:05:28;;;;;;;1.70;1.60;;;;;;;28.08;25.96;99757.02;431989;1268;139806;-68
2023/07/08 17:15:32;;;;;;;;;;;;;;;27.74;26.27;99754.00;431928;1267;139254;-68
2023/07/08 17:25:35;;;;;;;3.00;2.20;;;;;;;27.44;26.62;99750.18;431909;1268;125752;-68
2023/07/08 17:35:38;;;;;;;6.60;1.80;;;;;;;27.24;28.01;99750.66;432074;1270;139166;-68
2023/07/08 17:45:45;;;;;;;4.20;1.90;;;;;;;26.97;28.84;99752.23;431888;1268;138570;-68
2023/07/08 17:55:51;;;;;;;14.90;2.90;;;;;;;26.62;29.46;99755.52;431736;1267;139982;-68
2023/07/08 18:05:54;;;;;;;5.90;2.90;;;;;;;26.29;30.80;99754.11;432120;1267;139227;-69
2023/07/08 18:15:57;;;;;;;15.20;4.00;;;;;;;25.93;32.09;99757.36;431812;1267;138867;-69
2023/07/08 18:26:00;;;;;;;17.80;5.20;;;;;;;25.55;32.09;99759.30;431824;1270;139120;-69
2023/07/08 18:36:05;;;;;;;2.40;2.10;;;;;;;25.15;32.92;99761.46;432411;1267;140554;-69
2023/07/08 18:46:11;;;;;;;7.50;2.90;;;;;;;24.69;34.49;99763.58;432390;1268;139209;-67
2023/07/08 18:56:16;;;;;;;12.20;4.10;;;;;;;24.18;36.00;99776.34;432497;1270;139931;-68
2023/07/08 19:06:19;;;;;;;5.00;3.50;;;;;;;23.63;36.97;99784.08;432060;1268;139088;-68
2023/07/08 19:16:23;;;;;;;4.40;3.00;;;;;;;23.23;36.81;99800.66;431688;1270;140298;-68
2023/07/08 19:26:27;;;;;;;6.80;3.40;;;;;;;22.92;36.56;99814.30;431788;1267;138537;-68
2023/07/08 19:36:32;;;;;;;7.70;3.60;;;;;;;22.66;36.79;99820.02;431335;1270;138393;-70
2023/07/08 19:46:35;;;;;;;9.50;4.80;;;;;;;22.43;38.10;99821.16;431924;1270;138375;-69
2023/07/08 19:56:38;;;;;;;7.50;3.80;;;;;;;22.03;39.88;99822.46;431320;1270;138772;-68
2023/07/08 20:06:42;;;;;;;11.30;5.40;;;;;;;21.59;41.32;99824.83;431644;1267;139347;-70
2023/07/08 20:16:47;;;;;;;8.40;5.20;;;;;;;21.15;42.98;99820.83;432042;1267;138880;-68
2023/07/08 20:26:51;;;;;;;6.90;5.10;;;;;;;20.70;43.89;99827.10;431662;1268;138758;-70
2023/07/08 20:36:54;;;;;;;12.00;5.10;;;;;;;20.31;44.83;99830.29;431897;1267;139574;-69
2023/07/08 20:46:57;;;;;;;5.70;4.20;;;;;;;19.95;46.18;99832.63;431668;1268;138638;-70
2023/07/08 20:57:00;;;;;;;10.30;8.60;;;;;;;19.56;47.12;99834.42;431508;1268;138995;-68
2023/07/08 21:07:04;;;;;;;9.20;4.10;;;;;;;19.25;48.34;99834.23;432201;1268;139935;-69
2023/07/08 21:17:15;;;;;;;11.90;8.90;;;;;;;18.95;49.60;99839.08;432242;1268;138342;-70
2023/07/08 21:27:22;;;;;;;7.00;4.90;;;;;;;18.67;50.94;99844.10;432134;1270;138476;-68
2023/07/08 21:37:25;;;;;;;8.10;4.40;;;;;;;18.43;51.91;99848.70;431705;1268;139011;-68
2023/07/08 21:47:28;;;;;;;4.40;3.60;;;;;;;18.22;52.91;99857.88;431919;1268;139734;-71
2023/07/08 21:57:31;;;;;;;7.80;4.80;;;;;;;18.03;53.53;99855.11;432125;1268;138556;-72
2023/07/08 22:07:35;;;;;;;6.60;5.00;;;;;;;17.92;54.00;99856.46;431691;1270;138606;-71
2023/07/08 22:17:38;;;;;;;7.90;5.10;;;;;;;17.81;54.01;99854.80;431748;1268;138355;-72
2023/07/08 22:27:41;;;;;;;6.50;4.60;;;;;;;17.71;54.49;99852.34;431571;1267;138546;-69
2023/07/08 22:37:44;;;;;;;5.00;3.80;;;;;;;17.81;53.02;99851.25;431570;1267;140109;-70
2023/07/08 22:47:48;;;;;;;7.20;3.80;;;;;;;18.22;51.39;99854.65;431390;1268;138489;-72
2023/07/08 22:57:51;;;;;;;5.30;3.60;;;;;;;18.42;50.47;99858.25;431478;1270;138843;-71
2023/07/08 23:07:55;;;;;;;6.20;5.30;;;;;;;18.69;50.87;99857.63;431467;1268;138441;-69
2023/07/08 23:17:58;;;;;;;4.10;3.30;;;;;;;18.58;51.10;99861.59;431244;1270;138468;-71
2023/07/08 23:28:02;;;;;;;3.40;3.10;;;;;;;18.75;50.06;99866.83;431351;1270;138665;-70
2023/07/08 23:38:05;;;;;;;3.90;3.50;;;;;;;18.70;49.69;99860.21;431205;1268;139250;-71
2023/07/08 23:48:12;;;;;;;4.10;3.50;;;;;;;18.50;50.87;99850.67;431024;1270;138537;-70
2023/07/08 23:58:20;;;;;;;4.90;4.50;;;;;;;18.18;52.01;99856.40;431296;1268;138604;-71
